Emerald Seas — SVA6551 — position and weather

sailwx.info

Track history (hours):
 
Tides and Currents Weather Stations Pressure Air Temp Water Temp Dewpoint Dewpoint Depression Visibility Wind Speed Wind Dir Waves Ship Positions

Emerald Seas

Last reported at 2018-Jun-23 19:38 UTC. Time now 2018-Jun-24 20:08 UTC.
Position N 37°41' E 023°31'.

Length 12 m.

MMSI: 239896500.

Date/timePositionNaut miles runAvg speedWind from/ knotsBaromVisibWave heightAir tempDewpointWater temp
2018-Jun-23 19:38N 37°41' E 023°31'1 6.5
2018-Jun-23 19:29N 37°41' E 023°32'3 2.5
2018-Jun-23 18:11N 37°45' E 023°33'1 3.7
2018-Jun-23 17:59N 37°45' E 023°34'3 5.9
2018-Jun-23 17:30N 37°47' E 023°36'3 5.4
2018-Jun-23 17:00N 37°49' E 023°37'3 5.3
2018-Jun-23 16:30N 37°52' E 023°39'3 5.1
2018-Jun-23 16:00N 37°54' E 023°40'2 3.2
2018-Jun-23 15:28N 37°55' E 023°42'0 0.1
2018-Jun-23 15:00N 37°55' E 023°42'0 0.5
2018-Jun-23 14:28N 37°55' E 023°42'0 0.0
2018-Jun-23 13:58N 37°55' E 023°42'0 0.0
2018-Jun-23 13:28N 37°55' E 023°42'0 0.0
2018-Jun-23 12:58N 37°55' E 023°42'0 0.0
2018-Jun-23 12:28N 37°55' E 023°42'0 0.0
2018-Jun-23 11:58N 37°55' E 023°42'0 0.0
2018-Jun-23 11:28N 37°55' E 023°42'0 0.0
2018-Jun-23 10:58N 37°55' E 023°42'0 0.0
2018-Jun-23 10:28N 37°55' E 023°42'0 0.0
2018-Jun-23 09:58N 37°55' E 023°42'0 0.0
2018-Jun-23 09:28N 37°55' E 023°42'0 0.0
2018-Jun-23 08:55N 37°55' E 023°42'0 0.0
2018-Jun-23 08:28N 37°55' E 023°42'0 0.0
2018-Jun-23 07:58N 37°55' E 023°42'0 0.0
2018-Jun-23 07:28N 37°55' E 023°42'0 0.0
2018-Jun-23 06:58N 37°55' E 023°42'0 0.0
2018-Jun-23 06:28N 37°55' E 023°42'0 0.0
2018-Jun-23 05:58N 37°55' E 023°42'0 0.0
2018-Jun-23 05:25N 37°55' E 023°42'0 0.0
2018-Jun-23 04:58N 37°55' E 023°42'0 0.0
2018-Jun-23 04:28N 37°55' E 023°42'0 0.0
2018-Jun-23 03:58N 37°55' E 023°42'0 0.0
2018-Jun-23 03:28N 37°55' E 023°42'0 0.0
2018-Jun-23 02:58N 37°55' E 023°42'0 0.0
2018-Jun-23 02:28N 37°55' E 023°42'0 0.0
2018-Jun-23 01:58N 37°55' E 023°42'0 0.0
2018-Jun-23 01:28N 37°55' E 023°42'0 0.0
2018-Jun-23 00:58N 37°55' E 023°42'0 0.0
2018-Jun-23 00:28N 37°55' E 023°42'0 0.0
2018-Jun-22 23:58N 37°55' E 023°42'0 0.0
2018-Jun-22 23:28N 37°55' E 023°42'0 0.0
2018-Jun-22 22:58N 37°55' E 023°42'0 0.0
2018-Jun-22 22:28N 37°55' E 023°42'0 0.0
2018-Jun-22 21:58N 37°55' E 023°42'0 0.0
2018-Jun-22 21:28N 37°55' E 023°42'0 0.0
2018-Jun-22 20:58N 37°55' E 023°42'0 0.0
2018-Jun-22 20:28N 37°55' E 023°42'0 0.0
2018-Jun-22 19:58N 37°55' E 023°42'0 0.0
2018-Jun-22 19:28N 37°55' E 023°42'0 0.0
2018-Jun-22 18:58N 37°55' E 023°42'0 0.0
2018-Jun-22 18:28N 37°55' E 023°42'0 0.0
2018-Jun-22 17:58N 37°55' E 023°42'0 0.0
2018-Jun-22 17:28N 37°55' E 023°42'0 0.0
2018-Jun-22 16:58N 37°55' E 023°42'0 0.0
2018-Jun-22 16:28N 37°55' E 023°42'0 0.0
2018-Jun-22 15:58N 37°55' E 023°42'0 0.0
2018-Jun-22 15:28N 37°55' E 023°42'0 0.0
2018-Jun-22 14:55N 37°55' E 023°42'0 0.0
2018-Jun-22 14:28N 37°55' E 023°42'0 0.0
2018-Jun-22 13:58N 37°55' E 023°42'0 0.0
2018-Jun-22 13:28N 37°55' E 023°42'0 0.0
2018-Jun-22 12:58N 37°55' E 023°42'0 0.0
2018-Jun-22 12:28N 37°55' E 023°42'0 0.0
2018-Jun-22 11:58N 37°55' E 023°42'0 0.0
2018-Jun-22 11:28N 37°55' E 023°42'0 0.0
2018-Jun-22 10:58N 37°55' E 023°42'0 0.0
2018-Jun-22 10:28N 37°55' E 023°42'0 0.0
2018-Jun-22 09:58N 37°55' E 023°42'0 0.0
2018-Jun-22 09:28N 37°55' E 023°42'0 0.0
2018-Jun-22 08:58N 37°55' E 023°42'0 0.0
2018-Jun-22 08:28N 37°55' E 023°42'2 3.9
2018-Jun-22 08:00N 37°54' E 023°40'2 4.2
2018-Jun-22 07:31N 37°53' E 023°38'3 5.8
2018-Jun-22 07:00N 37°51' E 023°35'3 5.8
2018-Jun-22 06:31N 37°50' E 023°32'3 5.5
2018-Jun-22 06:00N 37°48' E 023°29'  
2018-Jun-17 09:09N 37°42' E 023°40'1 5.3
2018-Jun-17 08:57N 37°43' E 023°40'3 5.3
2018-Jun-17 08:26N 37°46' E 023°40'2 4.9
2018-Jun-17 07:58N 37°48' E 023°41'1 2.8
2018-Jun-17 07:26N 37°49' E 023°41'2 4.5
2018-Jun-17 07:00N 37°51' E 023°41'2 4.8
2018-Jun-17 06:30N 37°54' E 023°42'1 2.2
2018-Jun-17 05:59N 37°55' E 023°42'0 0.0
2018-Jun-17 05:29N 37°55' E 023°42'0 0.0
2018-Jun-17 04:59N 37°55' E 023°42'0 0.0
2018-Jun-17 04:29N 37°55' E 023°42'0 0.0
2018-Jun-17 03:59N 37°55' E 023°42'0 0.0
2018-Jun-17 03:29N 37°55' E 023°42'0 0.0
2018-Jun-17 02:59N 37°55' E 023°42'0 0.0
2018-Jun-17 02:29N 37°55' E 023°42'0 0.0
2018-Jun-17 01:59N 37°55' E 023°42'0 0.0
2018-Jun-17 01:29N 37°55' E 023°42'0 0.0
2018-Jun-17 00:59N 37°55' E 023°42'0 0.0
2018-Jun-17 00:29N 37°55' E 023°42'0 0.0
2018-Jun-16 23:59N 37°55' E 023°42'0 0.0
2018-Jun-16 23:29N 37°55' E 023°42'0 0.0
2018-Jun-16 22:59N 37°55' E 023°42'0 0.0
2018-Jun-16 22:29N 37°55' E 023°42'0 0.0
2018-Jun-16 21:59N 37°55' E 023°42'0 0.0
2018-Jun-16 21:29N 37°55' E 023°42'0 0.0
2018-Jun-16 20:59N 37°55' E 023°42'0 0.0
2018-Jun-16 20:29N 37°55' E 023°42'0 0.0
2018-Jun-16 19:59N 37°55' E 023°42'0 0.0
2018-Jun-16 19:29N 37°55' E 023°42'0 0.0
2018-Jun-16 18:59N 37°55' E 023°42'0 0.0
2018-Jun-16 18:29N 37°55' E 023°42'0 0.0
2018-Jun-16 17:59N 37°55' E 023°42'0 0.0
2018-Jun-16 17:29N 37°55' E 023°42'0 0.0
2018-Jun-16 16:59N 37°55' E 023°42'0 0.0
2018-Jun-16 16:29N 37°55' E 023°42'0 0.0
2018-Jun-16 15:56N 37°55' E 023°42'0 0.0
2018-Jun-16 15:29N 37°55' E 023°42'0 0.0
2018-Jun-16 14:59N 37°55' E 023°42'0 0.0
2018-Jun-16 14:29N 37°55' E 023°42'0 0.0
2018-Jun-16 13:59N 37°55' E 023°42'0 0.0
2018-Jun-16 13:29N 37°55' E 023°42'0 0.0
2018-Jun-16 12:59N 37°55' E 023°42'0 0.0
2018-Jun-16 12:26N 37°55' E 023°42'0 0.0
2018-Jun-16 11:59N 37°55' E 023°42'0 0.0
2018-Jun-16 11:29N 37°55' E 023°42'0 0.0
2018-Jun-16 10:59N 37°55' E 023°42'0 0.0
2018-Jun-16 10:29N 37°55' E 023°42'0 0.0
2018-Jun-16 09:59N 37°55' E 023°42'0 0.0
2018-Jun-16 09:29N 37°55' E 023°42'0 0.0
2018-Jun-16 08:59N 37°55' E 023°42'0 0.0
2018-Jun-16 08:29N 37°55' E 023°42'0 0.0
2018-Jun-16 07:59N 37°55' E 023°42'0 0.0
2018-Jun-16 07:29N 37°55' E 023°42'0 0.0
2018-Jun-16 06:59N 37°55' E 023°42'0 0.0
2018-Jun-16 06:29N 37°55' E 023°42'0 0.0
2018-Jun-16 05:59N 37°55' E 023°42'0 0.0
2018-Jun-16 05:26N 37°55' E 023°42'0 0.0
2018-Jun-16 04:59N 37°55' E 023°42'0 0.0
2018-Jun-16 04:29N 37°55' E 023°42'0 0.0
2018-Jun-16 03:59N 37°55' E 023°42'0 0.0
2018-Jun-16 03:29N 37°55' E 023°42'0 0.0
2018-Jun-16 02:59N 37°55' E 023°42'0 0.0
2018-Jun-16 02:29N 37°55' E 023°42'0 0.0
2018-Jun-16 01:59N 37°55' E 023°42'0 0.0
2018-Jun-16 01:29N 37°55' E 023°42'0 0.0
2018-Jun-16 00:59N 37°55' E 023°42'0 0.0
2018-Jun-16 00:29N 37°55' E 023°42'0 0.0
2018-Jun-15 23:59N 37°55' E 023°42'0 0.0
2018-Jun-15 23:29N 37°55' E 023°42'0 0.0
2018-Jun-15 22:59N 37°55' E 023°42'0 0.0
2018-Jun-15 22:29N 37°55' E 023°42'0 0.0
2018-Jun-15 21:59N 37°55' E 023°42'0 0.0
2018-Jun-15 21:29N 37°55' E 023°42'0 0.0
2018-Jun-15 20:59N 37°55' E 023°42'0 0.0
2018-Jun-15 20:29N 37°55' E 023°42'0 0.0
2018-Jun-15 19:59N 37°55' E 023°42'0 0.0
2018-Jun-15 19:29N 37°55' E 023°42'0 0.0
2018-Jun-15 18:59N 37°55' E 023°42'0 0.0
2018-Jun-15 18:29N 37°55' E 023°42'0 0.0
2018-Jun-15 17:56N 37°55' E 023°42'0 0.0
2018-Jun-15 17:29N 37°55' E 023°42'0 0.0
2018-Jun-15 16:59N 37°55' E 023°42'0 0.0
2018-Jun-15 16:26N 37°55' E 023°42'0 0.0
2018-Jun-15 15:59N 37°55' E 023°42'0 0.0
2018-Jun-15 15:26N 37°55' E 023°42'0 0.0
2018-Jun-15 14:56N 37°55' E 023°42'0 0.0
2018-Jun-15 14:29N 37°55' E 023°42'0 0.0
2018-Jun-15 13:59N 37°55' E 023°42'0 0.0
2018-Jun-15 13:29N 37°55' E 023°42'0 0.0
2018-Jun-15 12:59N 37°55' E 023°42'0 0.0
2018-Jun-15 12:31N 37°55' E 023°42'3 5.5
2018-Jun-15 12:01N 37°53' E 023°39'4 8.0
2018-Jun-15 11:31N 37°50' E 023°36'4 7.8
2018-Jun-15 11:01N 37°47' E 023°33'1 1.1
2018-Jun-15 10:28N 37°46' E 023°33'0 0.0
2018-Jun-15 09:58N 37°46' E 023°33'0 0.0
2018-Jun-15 09:19N 37°46' E 023°33'0 0.0
2018-Jun-15 08:58N 37°46' E 023°33'0 0.0
2018-Jun-15 08:28N 37°46' E 023°33'0 0.0
2018-Jun-15 07:58N 37°46' E 023°33'  
Track history (hours):
 
Tides and Currents Weather Stations Pressure Air Temp Water Temp Dewpoint Dewpoint Depression Visibility Wind Speed Wind Dir Waves Ship Positions

Emerald Seas

Last reported at 2018-Jun-23 19:38 UTC. Time now 2018-Jun-24 20:08 UTC.
Position N 37°41' E 023°31'.

Length 12 m.

MMSI: 239896500.

Date/timePositionNaut miles runAvg speedWind from/ knotsBaromVisibWave heightAir tempDewpointWater temp
2018-Jun-23 19:38N 37°41' E 023°31'1 6.5
2018-Jun-23 19:29N 37°41' E 023°32'3 2.5
2018-Jun-23 18:11N 37°45' E 023°33'1 3.7
2018-Jun-23 17:59N 37°45' E 023°34'3 5.9
2018-Jun-23 17:30N 37°47' E 023°36'3 5.4
2018-Jun-23 17:00N 37°49' E 023°37'3 5.3
2018-Jun-23 16:30N 37°52' E 023°39'3 5.1
2018-Jun-23 16:00N 37°54' E 023°40'2 3.2
2018-Jun-23 15:28N 37°55' E 023°42'0 0.1
2018-Jun-23 15:00N 37°55' E 023°42'0 0.5
2018-Jun-23 14:28N 37°55' E 023°42'0 0.0
2018-Jun-23 13:58N 37°55' E 023°42'0 0.0
2018-Jun-23 13:28N 37°55' E 023°42'0 0.0
2018-Jun-23 12:58N 37°55' E 023°42'0 0.0
2018-Jun-23 12:28N 37°55' E 023°42'0 0.0
2018-Jun-23 11:58N 37°55' E 023°42'0 0.0
2018-Jun-23 11:28N 37°55' E 023°42'0 0.0
2018-Jun-23 10:58N 37°55' E 023°42'0 0.0
2018-Jun-23 10:28N 37°55' E 023°42'0 0.0
2018-Jun-23 09:58N 37°55' E 023°42'0 0.0
2018-Jun-23 09:28N 37°55' E 023°42'0 0.0
2018-Jun-23 08:55N 37°55' E 023°42'0 0.0
2018-Jun-23 08:28N 37°55' E 023°42'0 0.0
2018-Jun-23 07:58N 37°55' E 023°42'0 0.0
2018-Jun-23 07:28N 37°55' E 023°42'0 0.0
2018-Jun-23 06:58N 37°55' E 023°42'0 0.0
2018-Jun-23 06:28N 37°55' E 023°42'0 0.0
2018-Jun-23 05:58N 37°55' E 023°42'0 0.0
2018-Jun-23 05:25N 37°55' E 023°42'0 0.0
2018-Jun-23 04:58N 37°55' E 023°42'0 0.0
2018-Jun-23 04:28N 37°55' E 023°42'0 0.0
2018-Jun-23 03:58N 37°55' E 023°42'0 0.0
2018-Jun-23 03:28N 37°55' E 023°42'0 0.0
2018-Jun-23 02:58N 37°55' E 023°42'0 0.0
2018-Jun-23 02:28N 37°55' E 023°42'0 0.0
2018-Jun-23 01:58N 37°55' E 023°42'0 0.0
2018-Jun-23 01:28N 37°55' E 023°42'0 0.0
2018-Jun-23 00:58N 37°55' E 023°42'0 0.0
2018-Jun-23 00:28N 37°55' E 023°42'0 0.0
2018-Jun-22 23:58N 37°55' E 023°42'0 0.0
2018-Jun-22 23:28N 37°55' E 023°42'0 0.0
2018-Jun-22 22:58N 37°55' E 023°42'0 0.0
2018-Jun-22 22:28N 37°55' E 023°42'0 0.0
2018-Jun-22 21:58N 37°55' E 023°42'0 0.0
2018-Jun-22 21:28N 37°55' E 023°42'0 0.0
2018-Jun-22 20:58N 37°55' E 023°42'0 0.0
2018-Jun-22 20:28N 37°55' E 023°42'0 0.0
2018-Jun-22 19:58N 37°55' E 023°42'0 0.0
2018-Jun-22 19:28N 37°55' E 023°42'0 0.0
2018-Jun-22 18:58N 37°55' E 023°42'0 0.0
2018-Jun-22 18:28N 37°55' E 023°42'0 0.0
2018-Jun-22 17:58N 37°55' E 023°42'0 0.0
2018-Jun-22 17:28N 37°55' E 023°42'0 0.0
2018-Jun-22 16:58N 37°55' E 023°42'0 0.0
2018-Jun-22 16:28N 37°55' E 023°42'0 0.0
2018-Jun-22 15:58N 37°55' E 023°42'0 0.0
2018-Jun-22 15:28N 37°55' E 023°42'0 0.0
2018-Jun-22 14:55N 37°55' E 023°42'0 0.0
2018-Jun-22 14:28N 37°55' E 023°42'0 0.0
2018-Jun-22 13:58N 37°55' E 023°42'0 0.0
2018-Jun-22 13:28N 37°55' E 023°42'0 0.0
2018-Jun-22 12:58N 37°55' E 023°42'0 0.0
2018-Jun-22 12:28N 37°55' E 023°42'0 0.0
2018-Jun-22 11:58N 37°55' E 023°42'0 0.0
2018-Jun-22 11:28N 37°55' E 023°42'0 0.0
2018-Jun-22 10:58N 37°55' E 023°42'0 0.0
2018-Jun-22 10:28N 37°55' E 023°42'0 0.0
2018-Jun-22 09:58N 37°55' E 023°42'0 0.0
2018-Jun-22 09:28N 37°55' E 023°42'0 0.0
2018-Jun-22 08:58N 37°55' E 023°42'0 0.0
2018-Jun-22 08:28N 37°55' E 023°42'2 3.9
2018-Jun-22 08:00N 37°54' E 023°40'2 4.2
2018-Jun-22 07:31N 37°53' E 023°38'3 5.8
2018-Jun-22 07:00N 37°51' E 023°35'3 5.8
2018-Jun-22 06:31N 37°50' E 023°32'3 5.5
2018-Jun-22 06:00N 37°48' E 023°29'  
2018-Jun-17 09:09N 37°42' E 023°40'1 5.3
2018-Jun-17 08:57N 37°43' E 023°40'3 5.3
2018-Jun-17 08:26N 37°46' E 023°40'2 4.9
2018-Jun-17 07:58N 37°48' E 023°41'1 2.8
2018-Jun-17 07:26N 37°49' E 023°41'2 4.5
2018-Jun-17 07:00N 37°51' E 023°41'2 4.8
2018-Jun-17 06:30N 37°54' E 023°42'1 2.2
2018-Jun-17 05:59N 37°55' E 023°42'0 0.0
2018-Jun-17 05:29N 37°55' E 023°42'0 0.0
2018-Jun-17 04:59N 37°55' E 023°42'0 0.0
2018-Jun-17 04:29N 37°55' E 023°42'0 0.0
2018-Jun-17 03:59N 37°55' E 023°42'0 0.0
2018-Jun-17 03:29N 37°55' E 023°42'0 0.0
2018-Jun-17 02:59N 37°55' E 023°42'0 0.0
2018-Jun-17 02:29N 37°55' E 023°42'0 0.0
2018-Jun-17 01:59N 37°55' E 023°42'0 0.0
2018-Jun-17 01:29N 37°55' E 023°42'0 0.0
2018-Jun-17 00:59N 37°55' E 023°42'0 0.0
2018-Jun-17 00:29N 37°55' E 023°42'0 0.0
2018-Jun-16 23:59N 37°55' E 023°42'0 0.0
2018-Jun-16 23:29N 37°55' E 023°42'0 0.0
2018-Jun-16 22:59N 37°55' E 023°42'0 0.0
2018-Jun-16 22:29N 37°55' E 023°42'0 0.0
2018-Jun-16 21:59N 37°55' E 023°42'0 0.0
2018-Jun-16 21:29N 37°55' E 023°42'0 0.0
2018-Jun-16 20:59N 37°55' E 023°42'0 0.0
2018-Jun-16 20:29N 37°55' E 023°42'0 0.0
2018-Jun-16 19:59N 37°55' E 023°42'0 0.0
2018-Jun-16 19:29N 37°55' E 023°42'0 0.0
2018-Jun-16 18:59N 37°55' E 023°42'0 0.0
2018-Jun-16 18:29N 37°55' E 023°42'0 0.0
2018-Jun-16 17:59N 37°55' E 023°42'0 0.0
2018-Jun-16 17:29N 37°55' E 023°42'0 0.0
2018-Jun-16 16:59N 37°55' E 023°42'0 0.0
2018-Jun-16 16:29N 37°55' E 023°42'0 0.0
2018-Jun-16 15:56N 37°55' E 023°42'0 0.0
2018-Jun-16 15:29N 37°55' E 023°42'0 0.0
2018-Jun-16 14:59N 37°55' E 023°42'0 0.0
2018-Jun-16 14:29N 37°55' E 023°42'0 0.0
2018-Jun-16 13:59N 37°55' E 023°42'0 0.0
2018-Jun-16 13:29N 37°55' E 023°42'0 0.0
2018-Jun-16 12:59N 37°55' E 023°42'0 0.0
2018-Jun-16 12:26N 37°55' E 023°42'0 0.0
2018-Jun-16 11:59N 37°55' E 023°42'0 0.0
2018-Jun-16 11:29N 37°55' E 023°42'0 0.0
2018-Jun-16 10:59N 37°55' E 023°42'0 0.0
2018-Jun-16 10:29N 37°55' E 023°42'0 0.0
2018-Jun-16 09:59N 37°55' E 023°42'0 0.0
2018-Jun-16 09:29N 37°55' E 023°42'0 0.0
2018-Jun-16 08:59N 37°55' E 023°42'0 0.0
2018-Jun-16 08:29N 37°55' E 023°42'0 0.0
2018-Jun-16 07:59N 37°55' E 023°42'0 0.0
2018-Jun-16 07:29N 37°55' E 023°42'0 0.0
2018-Jun-16 06:59N 37°55' E 023°42'0 0.0
2018-Jun-16 06:29N 37°55' E 023°42'0 0.0
2018-Jun-16 05:59N 37°55' E 023°42'0 0.0
2018-Jun-16 05:26N 37°55' E 023°42'0 0.0
2018-Jun-16 04:59N 37°55' E 023°42'0 0.0
2018-Jun-16 04:29N 37°55' E 023°42'0 0.0
2018-Jun-16 03:59N 37°55' E 023°42'0 0.0
2018-Jun-16 03:29N 37°55' E 023°42'0 0.0
2018-Jun-16 02:59N 37°55' E 023°42'0 0.0
2018-Jun-16 02:29N 37°55' E 023°42'0 0.0
2018-Jun-16 01:59N 37°55' E 023°42'0 0.0
2018-Jun-16 01:29N 37°55' E 023°42'0 0.0
2018-Jun-16 00:59N 37°55' E 023°42'0 0.0
2018-Jun-16 00:29N 37°55' E 023°42'0 0.0
2018-Jun-15 23:59N 37°55' E 023°42'0 0.0
2018-Jun-15 23:29N 37°55' E 023°42'0 0.0
2018-Jun-15 22:59N 37°55' E 023°42'0 0.0
2018-Jun-15 22:29N 37°55' E 023°42'0 0.0
2018-Jun-15 21:59N 37°55' E 023°42'0 0.0
2018-Jun-15 21:29N 37°55' E 023°42'0 0.0
2018-Jun-15 20:59N 37°55' E 023°42'0 0.0
2018-Jun-15 20:29N 37°55' E 023°42'0 0.0
2018-Jun-15 19:59N 37°55' E 023°42'0 0.0
2018-Jun-15 19:29N 37°55' E 023°42'0 0.0
2018-Jun-15 18:59N 37°55' E 023°42'0 0.0
2018-Jun-15 18:29N 37°55' E 023°42'0 0.0
2018-Jun-15 17:56N 37°55' E 023°42'0 0.0
2018-Jun-15 17:29N 37°55' E 023°42'0 0.0
2018-Jun-15 16:59N 37°55' E 023°42'0 0.0
2018-Jun-15 16:26N 37°55' E 023°42'0 0.0
2018-Jun-15 15:59N 37°55' E 023°42'0 0.0
2018-Jun-15 15:26N 37°55' E 023°42'0 0.0
2018-Jun-15 14:56N 37°55' E 023°42'0 0.0
2018-Jun-15 14:29N 37°55' E 023°42'0 0.0
2018-Jun-15 13:59N 37°55' E 023°42'0 0.0
2018-Jun-15 13:29N 37°55' E 023°42'0 0.0
2018-Jun-15 12:59N 37°55' E 023°42'0 0.0
2018-Jun-15 12:31N 37°55' E 023°42'3 5.5
2018-Jun-15 12:01N 37°53' E 023°39'4 8.0
2018-Jun-15 11:31N 37°50' E 023°36'4 7.8
2018-Jun-15 11:01N 37°47' E 023°33'1 1.1
2018-Jun-15 10:28N 37°46' E 023°33'0 0.0
2018-Jun-15 09:58N 37°46' E 023°33'0 0.0
2018-Jun-15 09:19N 37°46' E 023°33'0 0.0
2018-Jun-15 08:58N 37°46' E 023°33'0 0.0
2018-Jun-15 08:28N 37°46' E 023°33'0 0.0
2018-Jun-15 07:58N 37°46' E 023°33'  

Dump ship's entire track history